Time;durP1;ratioP1;P1;durP2;ratioP2;P2;SDS_P1;SDS_P2;PMS_P1;PMS_P2;Temp;Humidity;BMP_temperature;BMP_pressure;BME280_temperature;BME280_humidity;BME280_pressure;Samples;Min_cycle;Max_cycle;Signal;HPM_P1;HPM_P2
2023/05/22 00:04:01;;;;;;;1.20;1.10;;;16.60;99.90;;;;;;2607915;54;20153;-72
2023/05/22 00:09:49;;;;;;;1.43;1.33;;;16.40;99.90;;;;;;2609456;54;20462;-73
2023/05/22 00:15:37;;;;;;;1.30;1.20;;;16.40;99.90;;;;;;2609632;54;20169;-74
2023/05/22 00:21:26;;;;;;;1.50;1.40;;;16.30;99.90;;;;;;2613219;54;20133;-73
2023/05/22 00:27:14;;;;;;;1.30;1.20;;;16.20;99.90;;;;;;2612856;39;21197;-72
2023/05/22 00:33:02;;;;;;;1.10;1.00;;;16.10;99.90;;;;;;2614867;39;20930;-73
2023/05/22 00:38:50;;;;;;;1.20;1.10;;;16.20;99.90;;;;;;2614170;54;20664;-74
2023/05/22 00:48:52;;;;;;;1.30;1.20;;;16.30;99.90;;;;;;2614333;54;20427;-74
2023/05/22 00:54:40;;;;;;;1.40;1.30;;;16.20;99.90;;;;;;2613825;54;20459;-73
2023/05/22 01:00:32;;;;;;;1.40;1.30;;;16.10;99.90;;;;;;2614520;54;20530;-74
2023/05/22 01:06:20;;;;;;;1.50;1.40;;;16.00;99.90;;;;;;2612676;39;20813;-74
2023/05/22 01:23:29;;;;;;;1.40;1.30;;;15.80;99.90;;;;;;2612583;54;20410;-72
2023/05/22 01:36:01;;;;;;;1.00;0.90;;;15.60;99.90;;;;;;2610250;54;20403;-72
2023/05/22 01:41:49;;;;;;;1.03;0.93;;;15.60;99.90;;;;;;2610910;54;20402;-72
2023/05/22 01:44:19;;;;;;;2.33;2.13;;;15.50;99.90;;;;;;2610714;47;20443;-72
2023/05/22 01:46:45;;;;;;;1.00;0.80;;;15.60;99.90;;;;;;2611145;39;20869;-72
2023/05/22 01:59:24;;;;;;;1.10;1.00;;;15.40;99.90;;;;;;2613558;54;20406;-73
2023/05/22 02:05:17;;;;;;;1.20;1.10;;;15.20;99.90;;;;;;2613681;54;20375;-72
2023/05/22 02:11:06;;;;;;;1.30;1.20;;;15.20;99.90;;;;;;2612315;54;20503;-72
2023/05/22 02:16:55;;;;;;;1.20;1.10;;;15.10;99.90;;;;;;2613735;54;20953;-71
2023/05/22 02:22:45;;;;;;;1.03;0.93;;;15.00;99.90;;;;;;2614118;54;20395;-71
2023/05/22 02:28:32;;;;;;;1.20;1.10;;;15.10;99.90;;;;;;2613390;54;20383;-73
2023/05/22 02:34:20;;;;;;;1.20;1.10;;;15.10;99.90;;;;;;2615031;54;20153;-72
2023/05/22 02:40:09;;;;;;;1.10;1.00;;;15.10;99.90;;;;;;2614980;54;20138;-71
2023/05/22 02:49:26;;;;;;;1.17;1.07;;;15.20;99.90;;;;;;2615057;46;20450;-72
2023/05/22 02:55:14;;;;;;;1.10;1.00;;;15.20;99.90;;;;;;2614345;54;20418;-72
2023/05/22 03:01:02;;;;;;;1.20;1.10;;;15.30;99.90;;;;;;2613877;54;20891;-72
2023/05/22 03:06:49;;;;;;;1.33;1.23;;;15.20;99.90;;;;;;2613034;54;20153;-72
2023/05/22 03:12:37;;;;;;;1.30;1.20;;;15.20;99.90;;;;;;2613566;54;20150;-73
2023/05/22 03:18:25;;;;;;;1.17;1.07;;;15.50;99.90;;;;;;2611742;54;20131;-72
2023/05/22 03:24:13;;;;;;;1.50;1.40;;;15.40;99.90;;;;;;2611615;54;20154;-73
2023/05/22 03:30:04;;;;;;;1.10;1.00;;;15.40;99.90;;;;;;2612917;54;20135;-72
2023/05/22 03:35:52;;;;;;;1.00;0.90;;;15.50;99.90;;;;;;2612846;54;20379;-73
2023/05/22 03:41:40;;;;;;;1.10;1.00;;;15.70;99.90;;;;;;2612653;54;20122;-72
2023/05/22 03:44:51;;;;;;;1.00;0.90;;;15.70;99.90;;;;;;2612342;54;20420;-72
2023/05/22 03:47:17;;;;;;;1.10;1.00;;;15.70;99.90;;;;;;2613500;46;20258;-72
2023/05/22 03:53:05;;;;;;;2.27;2.10;;;15.60;99.90;;;;;;2614661;46;20154;-73
2023/05/22 03:58:52;;;;;;;0.97;0.87;;;15.60;99.90;;;;;;2613192;54;20142;-73
2023/05/22 04:04:40;;;;;;;1.20;1.10;;;15.50;99.90;;;;;;2614223;39;20527;-73
2023/05/22 04:10:28;;;;;;;1.23;1.13;;;15.30;99.90;;;;;;2614909;54;20390;-72
2023/05/22 04:16:17;;;;;;;0.97;0.80;;;15.60;99.90;;;;;;2613856;54;20190;-72
2023/05/22 04:22:05;;;;;;;0.90;0.67;;;15.70;99.90;;;;;;2613440;54;20455;-73
2023/05/22 04:27:53;;;;;;;0.97;0.70;;;15.40;99.90;;;;;;2614112;54;20419;-73
2023/05/22 04:33:40;;;;;;;0.97;0.80;;;15.40;99.90;;;;;;2612526;54;20673;-73
2023/05/22 04:39:28;;;;;;;1.10;1.00;;;15.50;99.90;;;;;;2614132;54;20131;-73
2023/05/22 04:49:23;;;;;;;1.00;0.90;;;15.60;99.90;;;;;;2612090;54;22098;-71
2023/05/22 04:55:11;;;;;;;1.30;1.20;;;15.70;99.90;;;;;;2612752;54;20973;-71
2023/05/22 05:00:59;;;;;;;1.60;1.50;;;15.70;99.90;;;;;;2612590;54;20134;-71
2023/05/22 05:06:46;;;;;;;1.00;0.90;;;16.20;99.90;;;;;;2613690;54;20150;-70
2023/05/22 05:12:34;;;;;;;3.40;1.30;;;16.30;99.90;;;;;;2610648;54;20130;-71
2023/05/22 05:18:22;;;;;;;6.90;2.53;;;16.60;99.90;;;;;;2612143;54;24405;-71
2023/05/22 05:24:09;;;;;;;1.23;1.13;;;16.60;99.90;;;;;;2610747;54;20223;-70
2023/05/22 05:29:58;;;;;;;1.00;0.80;;;16.80;99.90;;;;;;2612188;54;20130;-70
2023/05/22 05:35:45;;;;;;;1.00;0.90;;;16.70;99.90;;;;;;2610847;54;20383;-71
2023/05/22 05:41:33;;;;;;;1.30;1.20;;;16.90;99.90;;;;;;2614638;39;20520;-71
2023/05/22 05:44:51;;;;;;;1.57;1.47;;;17.00;99.90;;;;;;2613835;54;20492;-71
2023/05/22 05:47:17;;;;;;;1.80;1.70;;;17.00;99.90;;;;;;2611277;54;20266;-70
2023/05/22 05:53:05;;;;;;;2.50;2.40;;;17.10;99.90;;;;;;2611462;54;20235;-70
2023/05/22 05:58:52;;;;;;;1.60;1.50;;;17.80;99.90;;;;;;2611386;54;20229;-70
2023/05/22 06:04:41;;;;;;;1.67;1.57;;;17.80;99.90;;;;;;2605976;54;20231;-70
2023/05/22 06:10:28;;;;;;;2.53;2.43;;;17.60;99.90;;;;;;2610695;39;20793;-71
2023/05/22 06:16:16;;;;;;;2.03;1.93;;;18.20;99.90;;;;;;2612196;54;20130;-70
2023/05/22 06:22:04;;;;;;;2.83;2.73;;;18.30;99.90;;;;;;2612250;54;20139;-70
2023/05/22 06:27:52;;;;;;;3.60;3.40;;;18.70;99.90;;;;;;2612844;39;20547;-70
2023/05/22 06:33:41;;;;;;;4.47;4.27;;;18.70;99.90;;;;;;2613216;54;20267;-70
2023/05/22 06:39:29;;;;;;;6.63;6.23;;;19.20;99.90;;;;;;2611295;54;21075;-69
2023/05/22 06:49:23;;;;;;;6.10;4.80;;;20.60;99.90;;;;;;2613973;54;20444;-71
2023/05/22 06:55:10;;;;;;;7.50;7.10;;;20.70;99.90;;;;;;2610657;54;20430;-71
2023/05/22 07:00:58;;;;;;;6.63;6.23;;;20.90;99.90;;;;;;2612117;54;20133;-71
2023/05/22 07:06:47;;;;;;;6.97;6.67;;;21.40;99.90;;;;;;2610127;39;20772;-71
2023/05/22 07:12:36;;;;;;;8.67;8.27;;;22.20;99.90;;;;;;2610439;46;20874;-71
2023/05/22 07:18:25;;;;;;;8.13;7.83;;;21.50;99.90;;;;;;2609300;54;20408;-70
2023/05/22 07:24:13;;;;;;;8.87;8.57;;;21.60;99.90;;;;;;2609911;54;20400;-71
2023/05/22 07:30:01;;;;;;;11.13;10.43;;;21.90;99.90;;;;;;2610227;54;20150;-69
2023/05/22 07:35:48;;;;;;;11.13;10.63;;;21.90;99.90;;;;;;2611886;54;20138;-70
2023/05/22 07:41:36;;;;;;;11.80;11.30;;;22.50;99.90;;;;;;2614090;54;20114;-70
2023/05/22 07:47:34;;;;;;;13.83;12.80;;;23.30;99.90;;;;;;2611552;54;20138;-70
2023/05/22 07:50:56;;;;;;;9.20;8.90;;;22.70;99.90;;;;;;2609510;54;21009;-70
2023/05/22 07:53:22;;;;;;;10.47;10.07;;;23.30;99.90;;;;;;2610531;54;20139;-70
2023/05/22 07:59:10;;;;;;;11.93;11.23;;;23.50;99.90;;;;;;2611297;54;20165;-70
2023/05/22 08:04:58;;;;;;;10.67;10.27;;;23.40;99.90;;;;;;2612031;54;20395;-70
2023/05/22 08:10:47;;;;;;;11.23;10.73;;;23.80;99.90;;;;;;2608372;54;20175;-74
2023/05/22 08:16:34;;;;;;;13.27;12.30;;;24.10;99.90;;;;;;2609318;54;20509;-73
2023/05/22 08:22:21;;;;;;;13.23;12.23;;;23.60;99.90;;;;;;2610101;54;20158;-74
2023/05/22 08:28:09;;;;;;;16.83;15.00;;;23.90;99.90;;;;;;2610938;54;20139;-73
2023/05/22 08:34:01;;;;;;;9.97;9.37;;;24.40;99.90;;;;;;2609522;54;20269;-73
2023/05/22 08:39:49;;;;;;;15.37;14.27;;;23.90;99.90;;;;;;2611101;54;20403;-74
2023/05/22 08:49:23;;;;;;;12.33;11.63;;;25.00;99.90;;;;;;2611907;54;20426;-74
2023/05/22 08:55:11;;;;;;;17.57;15.87;;;24.80;99.90;;;;;;2610131;54;20435;-73
2023/05/22 09:01:00;;;;;;;8.40;8.10;;;24.90;99.90;;;;;;2613856;54;20146;-74
2023/05/22 09:06:48;;;;;;;20.67;16.50;;;25.30;99.90;;;;;;2613491;54;20957;-74
2023/05/22 09:12:36;;;;;;;39.27;17.20;;;25.10;99.90;;;;;;2612760;54;20395;-74
2023/05/22 09:18:27;;;;;;;17.67;16.30;;;25.20;95.50;;;;;;2613620;31;20585;-73
2023/05/22 09:24:15;;;;;;;18.20;16.70;;;25.30;99.90;;;;;;2613013;54;20398;-74
2023/05/22 09:30:03;;;;;;;15.07;14.00;;;25.40;96.30;;;;;;2612674;54;20131;-75
2023/05/22 09:35:51;;;;;;;10.93;10.40;;;24.10;99.90;;;;;;2612222;54;20657;-74
2023/05/22 09:41:39;;;;;;;20.03;17.93;;;23.50;99.90;;;;;;2611761;54;20525;-74
2023/05/22 09:44:51;;;;;;;14.70;13.63;;;23.60;99.90;;;;;;2609382;47;20419;-74
2023/05/22 09:47:17;;;;;;;17.83;16.40;;;24.90;99.90;;;;;;2612785;54;20155;-73
2023/05/22 09:53:07;;;;;;;24.50;18.67;;;25.90;97.50;;;;;;2612958;54;20148;-74
2023/05/22 09:58:55;;;;;;;37.03;20.10;;;24.50;98.70;;;;;;2612109;54;20472;-74
2023/05/22 10:04:47;;;;;;;14.90;13.97;;;25.30;99.90;;;;;;2612433;54;20155;-73
2023/05/22 10:10:36;;;;;;;19.47;17.97;;;25.40;96.70;;;;;;2612367;54;20386;-74
2023/05/22 10:16:25;;;;;;;26.13;23.53;;;24.20;96.90;;;;;;2610300;54;20415;-74
2023/05/22 10:22:19;;;;;;;20.90;19.00;;;24.40;99.90;;;;;;2612013;39;20748;-73
2023/05/22 10:28:07;;;;;;;13.53;12.70;;;24.00;99.90;;;;;;2611163;54;20358;-74
2023/05/22 10:34:01;;;;;;;15.33;14.37;;;26.00;93.00;;;;;;2611313;54;20442;-74
2023/05/22 10:39:51;;;;;;;19.30;17.53;;;25.20;89.40;;;;;;2611426;54;20400;-75
2023/05/22 10:49:27;;;;;;;14.00;13.00;;;25.80;78.60;;;;;;2612402;39;20801;-74
2023/05/22 10:55:21;;;;;;;19.23;17.37;;;25.00;83.60;;;;;;2612192;39;20883;-74
2023/05/22 11:01:17;;;;;;;36.27;21.17;;;24.40;92.10;;;;;;2612737;54;20415;-74
2023/05/22 11:07:07;;;;;;;16.77;15.50;;;24.90;93.20;;;;;;2612418;54;20403;-75
2023/05/22 11:13:11;;;;;;;13.63;12.30;;;25.60;83.90;;;;;;2612580;54;20399;-74
2023/05/22 11:25:45;;;;;;;20.13;18.60;;;24.80;84.70;;;;;;2610049;54;20433;-74
2023/05/22 11:31:36;;;;;;;23.23;21.10;;;24.90;80.80;;;;;;2613030;54;20134;-74
2023/05/22 11:37:23;;;;;;;10.27;9.87;;;26.10;72.50;;;;;;2612863;54;20415;-74
2023/05/22 11:43:11;;;;;;;19.23;17.33;;;26.10;72.70;;;;;;2612461;54;20166;-74
2023/05/22 11:52:29;;;;;;;21.20;19.30;;;25.70;69.40;;;;;;2613371;54;20404;-73
2023/05/22 11:58:21;;;;;;;14.70;13.83;;;25.00;65.60;;;;;;2611835;39;20785;-74
2023/05/22 12:04:09;;;;;;;15.47;14.47;;;25.20;70.80;;;;;;2613156;54;20402;-74
2023/05/22 12:09:57;;;;;;;20.67;18.40;;;26.20;64.90;;;;;;2613789;54;20203;-73
2023/05/22 12:15:45;;;;;;;14.03;13.23;;;25.90;65.90;;;;;;2613385;54;21022;-74
2023/05/22 12:21:35;;;;;;;15.63;14.73;;;26.00;60.40;;;;;;2612872;54;20637;-74
2023/05/22 12:27:22;;;;;;;25.43;23.17;;;25.80;62.40;;;;;;2612551;54;20422;-74
2023/05/22 12:33:13;;;;;;;16.33;15.33;;;25.70;69.40;;;;;;2612970;54;20123;-74
2023/05/22 12:45:16;;;;;;;23.73;21.50;;;26.90;57.80;;;;;;2612832;54;20504;-73
2023/05/22 12:47:54;;;;;;;20.10;14.10;;;25.90;54.20;;;;;;2613895;39;20820;-73
2023/05/22 12:50:20;;;;;;;14.63;14.03;;;26.60;55.40;;;;;;2610128;54;20155;-73
2023/05/22 12:56:08;;;;;;;19.63;18.20;;;26.80;52.50;;;;;;2596101;54;20134;-73
2023/05/22 13:02:00;;;;;;;14.27;13.47;;;26.40;52.10;;;;;;2611725;54;20167;-73
2023/05/22 13:07:48;;;;;;;13.10;12.40;;;26.90;54.40;;;;;;2612765;54;20390;-74
2023/05/22 13:13:36;;;;;;;14.53;13.70;;;27.00;57.90;;;;;;2611508;46;20438;-74
2023/05/22 13:19:23;;;;;;;20.63;18.90;;;27.10;50.20;;;;;;2612933;54;20807;-74
2023/05/22 13:25:12;;;;;;;22.37;20.47;;;27.20;52.80;;;;;;2613159;54;20170;-73
2023/05/22 13:31:00;;;;;;;14.27;13.47;;;26.90;55.60;;;;;;2612843;54;20399;-74
2023/05/22 13:36:47;;;;;;;14.70;13.90;;;27.20;54.60;;;;;;2612508;54;20195;-74
2023/05/22 13:42:35;;;;;;;14.80;14.13;;;27.00;51.40;;;;;;2611022;39;20633;-73
2023/05/22 13:52:23;;;;;;;14.00;13.30;;;26.50;49.10;;;;;;2612029;54;20876;-73
2023/05/22 13:58:11;;;;;;;12.63;12.00;;;26.90;52.40;;;;;;2612866;54;20411;-74
2023/05/22 14:03:58;;;;;;;12.93;12.33;;;25.90;65.80;;;;;;2611914;54;20138;-73
2023/05/22 14:09:46;;;;;;;20.43;18.13;;;26.90;46.30;;;;;;2612288;54;20251;-73
2023/05/22 14:15:33;;;;;;;17.73;15.70;;;27.40;43.70;;;;;;2610780;54;20207;-73
2023/05/22 14:21:21;;;;;;;17.13;16.03;;;27.40;49.40;;;;;;2611591;54;20138;-74
2023/05/22 14:27:09;;;;;;;17.77;16.53;;;26.70;46.60;;;;;;2612007;54;20266;-74
2023/05/22 14:32:56;;;;;;;13.47;12.87;;;27.10;51.80;;;;;;2610071;54;20126;-74
2023/05/22 14:38:45;;;;;;;18.90;17.47;;;27.50;42.60;;;;;;2612671;54;20130;-73
2023/05/22 14:44:33;;;;;;;14.53;13.73;;;27.00;40.50;;;;;;2612508;39;20794;-74
2023/05/22 14:47:22;;;;;;;14.73;13.97;;;27.20;40.40;;;;;;2612318;54;20432;-74
2023/05/22 14:53:44;;;;;;;19.20;17.93;;;27.50;38.90;;;;;;2612833;54;21072;-73
2023/05/22 14:59:32;;;;;;;14.37;13.57;;;27.30;38.70;;;;;;2613169;54;20475;-74
2023/05/22 15:05:20;;;;;;;14.77;13.77;;;26.00;46.00;;;;;;2612813;54;20503;-73
2023/05/22 15:11:08;;;;;;;12.27;11.70;;;26.40;51.90;;;;;;2612164;54;20637;-73
2023/05/22 15:16:59;;;;;;;12.13;11.73;;;26.40;46.10;;;;;;2611622;54;20138;-74
2023/05/22 15:22:47;;;;;;;17.70;16.80;;;27.70;40.80;;;;;;2583466;54;21060;-74
2023/05/22 15:28:35;;;;;;;15.63;14.83;;;27.50;34.30;;;;;;2613433;39;20623;-73
2023/05/22 15:34:22;;;;;;;14.80;14.00;;;26.70;36.00;;;;;;2612183;54;20132;-74
2023/05/22 15:40:15;;;;;;;16.13;15.13;;;26.90;30.00;;;;;;2611403;54;20228;-74
2023/05/22 15:46:02;;;;;;;19.33;15.63;;;27.30;31.80;;;;;;2610200;54;20422;-73
2023/05/22 15:49:08;;;;;;;13.40;12.77;;;27.10;30.80;;;;;;2610182;39;20791;-73
2023/05/22 15:51:34;;;;;;;14.23;13.53;;;26.60;30.60;;;;;;2609644;54;20166;-73
2023/05/22 15:57:21;;;;;;;15.40;14.60;;;26.90;33.20;;;;;;2613503;54;20405;-73
2023/05/22 16:03:10;;;;;;;14.23;13.27;;;26.20;30.90;;;;;;2612105;54;20146;-74
2023/05/22 16:08:57;;;;;;;14.40;13.63;;;26.70;34.40;;;;;;2613339;54;20166;-73
2023/05/22 16:14:45;;;;;;;14.77;13.90;;;26.50;33.60;;;;;;2613433;54;20130;-73
2023/05/22 16:20:34;;;;;;;17.30;16.10;;;26.60;34.20;;;;;;2611633;31;20645;-73
2023/05/22 16:26:22;;;;;;;22.73;20.77;;;25.60;43.70;;;;;;2611145;54;20403;-74
2023/05/22 16:32:10;;;;;;;19.60;17.90;;;24.60;71.40;;;;;;2612797;54;20165;-73
2023/05/22 16:37:57;;;;;;;15.97;14.33;;;23.90;95.20;;;;;;2612913;54;20326;-73
2023/05/22 16:43:45;;;;;;;14.70;13.90;;;22.70;99.90;;;;;;2610594;54;20138;-73
2023/05/22 16:53:38;;;;;;;13.20;12.47;;;22.00;99.90;;;;;;2612160;54;20415;-74
2023/05/22 16:59:26;;;;;;;10.30;5.40;;;21.10;99.90;;;;;;2613120;54;20391;-74
2023/05/22 17:05:14;;;;;;;2.93;2.50;;;19.10;99.90;;;;;;2612622;54;20162;-73
2023/05/22 17:11:02;;;;;;;1.10;1.00;;;18.50;99.90;;;;;;2611861;54;20199;-74
2023/05/22 17:16:50;;;;;;;1.10;1.00;;;18.30;99.90;;;;;;2612739;54;20218;-74
2023/05/22 17:22:37;;;;;;;0.90;0.80;;;18.40;99.90;;;;;;2613447;39;20532;-75
2023/05/22 17:28:25;;;;;;;1.80;1.70;;;18.50;99.90;;;;;;2612405;54;20126;-75
2023/05/22 17:34:13;;;;;;;2.00;1.90;;;18.80;99.90;;;;;;2613460;54;20154;-74
2023/05/22 17:40:01;;;;;;;1.40;1.30;;;19.20;99.90;;;;;;2611099;54;20223;-75
2023/05/22 17:45:49;;;;;;;3.37;2.90;;;19.20;99.90;;;;;;2611142;54;20223;-75
2023/05/22 17:48:50;;;;;;;3.53;3.23;;;19.20;99.90;;;;;;2611057;54;20843;-74
2023/05/22 17:51:16;;;;;;;2.23;2.13;;;19.10;99.90;;;;;;2610742;54;20410;-75
2023/05/22 17:57:03;;;;;;;6.67;6.03;;;19.00;99.90;;;;;;2609815;54;20814;-75
2023/05/22 18:02:51;;;;;;;3.50;3.30;;;18.90;99.90;;;;;;2613082;39;20557;-74
2023/05/22 18:08:39;;;;;;;2.87;2.70;;;18.70;99.90;;;;;;2610598;54;20230;-75
2023/05/22 18:14:26;;;;;;;2.50;2.40;;;18.60;99.90;;;;;;2611493;39;20537;-74
2023/05/22 18:20:15;;;;;;;3.27;3.17;;;18.50;99.90;;;;;;2612987;39;20635;-76
2023/05/22 18:26:03;;;;;;;1.93;1.83;;;18.50;99.90;;;;;;2612568;39;20767;-75
2023/05/22 18:31:51;;;;;;;3.70;3.50;;;18.50;99.90;;;;;;2608466;54;20142;-75
2023/05/22 18:37:38;;;;;;;3.87;3.57;;;18.40;99.90;;;;;;2611891;54;20126;-74
2023/05/22 18:43:26;;;;;;;1.70;1.60;;;18.40;99.90;;;;;;2612714;54;20138;-75
2023/05/22 18:49:14;;;;;;;2.07;1.97;;;18.40;99.90;;;;;;2612100;54;20403;-75
2023/05/22 18:55:02;;;;;;;1.63;1.53;;;18.50;99.90;;;;;;2612453;54;20166;-75
2023/05/22 19:00:50;;;;;;;1.93;1.83;;;18.60;99.90;;;;;;2610209;54;20130;-75
2023/05/22 19:06:40;;;;;;;2.73;2.53;;;18.60;99.90;;;;;;2608535;54;20419;-74
2023/05/22 19:12:30;;;;;;;1.43;1.33;;;18.70;99.90;;;;;;2611702;54;20988;-76
2023/05/22 19:18:18;;;;;;;3.63;3.33;;;18.70;99.90;;;;;;2613215;39;21156;-75
2023/05/22 19:24:06;;;;;;;1.90;1.80;;;18.60;99.90;;;;;;2612719;54;20157;-75
2023/05/22 19:29:54;;;;;;;1.90;1.80;;;18.50;99.90;;;;;;2612907;54;20146;-76
2023/05/22 19:35:42;;;;;;;1.57;1.47;;;18.50;99.90;;;;;;2610575;54;20142;-75
2023/05/22 19:41:30;;;;;;;1.30;1.20;;;18.40;99.90;;;;;;2613061;54;20387;-76
2023/05/22 19:47:17;;;;;;;2.63;2.43;;;18.20;99.90;;;;;;2613107;54;20139;-76
2023/05/22 19:56:28;;;;;;;1.03;0.93;;;18.10;99.90;;;;;;2613569;54;20399;-75
2023/05/22 20:02:16;;;;;;;2.60;2.40;;;17.80;99.90;;;;;;2608487;54;20351;-75
2023/05/22 20:08:04;;;;;;;5.60;3.77;;;17.70;99.90;;;;;;2609857;54;20135;-75
2023/05/22 20:13:53;;;;;;;2.67;2.57;;;17.70;99.90;;;;;;2609624;54;20620;-76
2023/05/22 20:19:43;;;;;;;10.10;5.23;;;17.70;99.90;;;;;;2612695;54;20395;-76
2023/05/22 20:25:31;;;;;;;1.30;1.20;;;17.60;99.90;;;;;;2612367;54;20940;-75
2023/05/22 20:31:19;;;;;;;5.20;4.73;;;17.40;99.90;;;;;;2612335;54;20554;-75
2023/05/22 20:37:08;;;;;;;4.50;4.30;;;17.30;99.90;;;;;;2613658;54;20192;-74
2023/05/22 20:42:56;;;;;;;1.60;1.50;;;17.10;99.90;;;;;;2612770;54;20468;-76
2023/05/22 20:48:47;;;;;;;2.30;2.20;;;17.00;99.90;;;;;;2615109;31;20618;-75
2023/05/22 20:51:58;;;;;;;1.40;1.30;;;16.80;99.90;;;;;;2614210;54;20407;-76
2023/05/22 20:54:24;;;;;;;1.50;1.40;;;16.80;99.90;;;;;;2613815;47;20419;-75
2023/05/22 21:00:12;;;;;;;1.60;1.50;;;16.50;99.90;;;;;;2611794;54;20398;-75
2023/05/22 21:06:00;;;;;;;1.20;1.10;;;16.50;99.90;;;;;;2612218;54;20391;-75
2023/05/22 21:11:48;;;;;;;1.00;0.90;;;16.30;99.90;;;;;;2612187;54;20624;-76
2023/05/22 21:17:35;;;;;;;1.07;0.97;;;16.20;99.90;;;;;;2610190;54;20676;-76
2023/05/22 21:23:23;;;;;;;1.30;1.20;;;16.00;99.90;;;;;;2609085;54;20692;-76
2023/05/22 21:29:11;;;;;;;1.93;1.83;;;16.10;99.90;;;;;;2611535;54;20122;-76
2023/05/22 21:34:59;;;;;;;3.10;2.30;;;16.00;99.90;;;;;;2613528;54;20673;-76
2023/05/22 21:40:46;;;;;;;1.00;0.80;;;16.00;99.90;;;;;;2612373;54;20129;-75
2023/05/22 21:46:35;;;;;;;1.70;1.60;;;15.90;99.90;;;;;;2612663;54;20119;-75
2023/05/22 21:56:26;;;;;;;6.80;4.30;;;15.80;99.90;;;;;;2611888;54;21059;-75
2023/05/22 22:02:14;;;;;;;10.00;7.27;;;15.70;99.90;;;;;;2612911;31;20892;-76
2023/05/22 22:08:01;;;;;;;12.30;8.83;;;15.50;99.90;;;;;;2612673;54;20138;-75
2023/05/22 22:13:49;;;;;;;1.40;1.30;;;15.50;99.90;;;;;;2612555;46;20141;-76
2023/05/22 22:19:36;;;;;;;3.00;2.40;;;15.40;99.90;;;;;;2614628;54;20231;-74
2023/05/22 22:25:25;;;;;;;7.50;5.47;;;15.40;99.90;;;;;;2613672;31;20609;-74
2023/05/22 22:31:13;;;;;;;2.40;2.20;;;15.30;99.90;;;;;;2613602;54;20375;-75
2023/05/22 22:37:01;;;;;;;6.50;4.00;;;15.30;99.90;;;;;;2612901;54;20171;-74
2023/05/22 22:40:05;;;;;;;11.93;6.47;;;15.30;99.90;;;;;;2613154;54;20416;-74
2023/05/22 22:42:33;;;;;;;1.00;0.67;;;15.30;99.90;;;;;;2612245;54;20181;-74
2023/05/22 22:48:21;;;;;;;1.80;0.93;;;15.00;99.90;;;;;;2613401;54;20677;-75
2023/05/22 22:54:09;;;;;;;6.70;3.33;;;15.00;99.90;;;;;;2613081;54;20205;-75
2023/05/22 22:59:57;;;;;;;7.93;1.93;;;15.00;99.90;;;;;;2613927;54;20415;-75
2023/05/22 23:05:45;;;;;;;3.20;2.73;;;15.10;99.90;;;;;;2613694;54;20202;-75
2023/05/22 23:11:38;;;;;;;1.00;0.60;;;15.10;99.90;;;;;;2613426;54;20399;-75
2023/05/22 23:17:26;;;;;;;2.13;1.20;;;14.90;99.90;;;;;;2612445;54;20386;-74
2023/05/22 23:23:13;;;;;;;2.50;1.70;;;15.00;99.90;;;;;;2612790;54;20130;-75
2023/05/22 23:29:01;;;;;;;3.90;2.10;;;14.90;99.90;;;;;;2613264;54;20174;-75
2023/05/22 23:34:49;;;;;;;8.87;7.10;;;14.80;99.90;;;;;;2614635;54;20153;-75
2023/05/22 23:40:37;;;;;;;5.37;2.50;;;14.80;99.90;;;;;;2614859;54;20114;-75
2023/05/22 23:46:24;;;;;;;1.60;1.27;;;14.80;99.90;;;;;;2614241;54;20636;-74
2023/05/22 23:56:25;;;;;;;1.87;1.07;;;14.90;99.90;;;;;;2614557;54;20917;-75
